createdAt,value
2022-11-28T00:01:38.966Z,7.2
2022-11-28T00:16:14.944Z,7.3
2022-11-28T00:30:48.426Z,7.3
2022-11-28T00:45:20.404Z,7.3
2022-11-28T00:59:53.488Z,7.2
2022-11-28T01:14:20.000Z,7.1
2022-11-28T01:28:50.904Z,7.1
2022-11-28T01:43:26.585Z,7.1
2022-11-28T01:58:00.963Z,7.1
2022-11-28T02:12:28.206Z,7.1
2022-11-28T02:26:58.042Z,6.7
2022-11-28T02:41:27.372Z,6.6
2022-11-28T02:55:57.681Z,6.3
2022-11-28T03:10:27.640Z,6.2
2022-11-28T03:24:58.331Z,6.4
2022-11-28T03:39:28.643Z,6
2022-11-28T03:53:59.072Z,6
2022-11-28T04:08:28.796Z,5.9
2022-11-28T04:22:58.197Z,6.2
2022-11-28T04:37:28.645Z,6.1
2022-11-28T04:51:59.462Z,6.1
2022-11-28T05:06:30.297Z,6.1
2022-11-28T05:21:01.111Z,6.2
2022-11-28T05:35:28.105Z,6.1
2022-11-28T05:49:57.166Z,5.9
2022-11-28T06:04:27.797Z,6
2022-11-28T06:18:57.270Z,5.9
2022-11-28T06:33:27.504Z,5.5
2022-11-28T06:47:57.713Z,5.7
2022-11-28T07:02:28.709Z,5.6
2022-11-28T07:16:58.834Z,5.8
2022-11-28T07:31:35.122Z,5.8
2022-11-28T07:46:08.498Z,5.9
2022-11-28T08:00:37.353Z,6.1
2022-11-28T08:15:08.184Z,6.4
2022-11-28T08:29:39.432Z,6.5
2022-11-28T08:44:09.668Z,6.4
2022-11-28T08:58:38.113Z,6.3
2022-11-28T09:13:08.493Z,6.4
2022-11-28T09:27:38.850Z,6.4
2022-11-28T09:42:09.432Z,6.7
2022-11-28T09:56:40.378Z,6.8
2022-11-28T10:11:17.456Z,6.9
2022-11-28T10:25:50.373Z,7
2022-11-28T10:40:17.031Z,7.1
2022-11-28T10:54:53.859Z,7.1
2022-11-28T11:09:20.432Z,7.1
2022-11-28T11:23:55.862Z,6.9
2022-11-28T11:38:22.014Z,7
2022-11-28T11:52:52.899Z,6.7
2022-11-28T12:07:23.110Z,6.9
2022-11-28T12:21:53.437Z,6.8
2022-11-28T12:36:28.005Z,6.8
2022-11-28T12:51:01.175Z,7
2022-11-28T13:05:29.117Z,7.1
2022-11-28T13:20:00.100Z,7.2
2022-11-28T13:34:36.882Z,7.2
2022-11-28T13:49:20.120Z,7.2
2022-11-28T14:03:40.350Z,7.4
2022-11-28T14:18:31.864Z,7.4
2022-11-28T14:33:08.280Z,7.4
2022-11-28T14:47:38.377Z,7.5
2022-11-28T15:02:09.311Z,7.5
2022-11-28T15:16:41.861Z,7.6
2022-11-28T15:31:14.789Z,7.5
2022-11-28T15:45:46.630Z,7.6
2022-11-28T16:00:18.763Z,7.6
2022-11-28T16:14:48.288Z,7.6
2022-11-28T16:29:19.490Z,7.7
2022-11-28T16:43:50.389Z,7.7
2022-11-28T16:58:21.005Z,7.6
2022-11-28T17:12:54.022Z,7.7
2022-11-28T17:27:22.712Z,7.7
2022-11-28T17:41:51.874Z,7.8
2022-11-28T17:56:22.691Z,7.7
2022-11-28T18:10:53.013Z,7.7
2022-11-28T18:25:24.238Z,7.8
2022-11-28T18:39:54.422Z,7.9
2022-11-28T18:54:30.022Z,7.8
2022-11-28T19:09:03.751Z,7.8
2022-11-28T19:23:28.555Z,7.8
2022-11-28T19:37:59.882Z,7.8
2022-11-28T19:52:30.745Z,7.9
2022-11-28T20:07:00.979Z,7.9
2022-11-28T20:21:31.271Z,7.9
2022-11-28T20:36:01.948Z,8
2022-11-28T20:50:32.929Z,8
2022-11-28T21:05:02.873Z,8
2022-11-28T21:19:39.139Z,7.9
2022-11-28T21:34:03.201Z,8.1
2022-11-28T21:48:30.695Z,8.1
2022-11-28T22:03:04.954Z,8.1
2022-11-28T22:17:48.067Z,8.1
2022-11-28T22:32:17.225Z,8.1
2022-11-28T22:46:46.008Z,8.1
2022-11-28T23:01:22.376Z,8.2
2022-11-28T23:15:55.241Z,8.2
2022-11-28T23:30:23.453Z,8.2
2022-11-28T23:44:53.301Z,8.2
2022-11-28T23:59:30.007Z,8.3
